This is the latest recevied weather packets stored in our database for station/object M7PDA-1. If no packets are shown the sender has not sent any weather packets the latest 10 day(s).
| Time | Temp. | Humidity | Pressure | Rain* | Wind** | Luminosity | Snow |
|---|---|---|---|---|---|---|---|
| 1777982978 | 12.22° C | 66% | 1016.7 hPa | - | - | - | - |
| 1777982077 | 12.22° C | 65% | 1016.8 hPa | - | - | - | - |
| 1777981176 | 13.33° C | 62% | 1016.7 hPa | - | - | - | - |
| 1777980275 | 12.78° C | 64% | 1016.8 hPa | - | - | - | - |
| 1777979375 | 12.78° C | 67% | 1016.7 hPa | - | - | - | - |
| 1777978474 | 11.67° C | 70% | 1016.8 hPa | - | - | - | - |
| 1777977573 | 10.56° C | 71% | 1016.9 hPa | - | - | - | - |
| 1777976672 | 10.56° C | 70% | 1017.1 hPa | - | - | - | - |
| 1777975771 | 10.56° C | 67% | 1017.2 hPa | - | - | - | - |
| 1777974871 | 11.67° C | 66% | 1017 hPa | - | - | - | - |
| 1777973970 | 12.78° C | 64% | 1016.9 hPa | - | - | - | - |
| 1777973069 | 12.22° C | 64% | 1017 hPa | - | - | - | - |
| 1777972168 | 12.22° C | 65% | 1017 hPa | - | - | - | - |
| 1777971268 | 11.67° C | 70% | 1016.9 hPa | - | - | - | - |
| 1777970367 | 11.11° C | 72% | 1017 hPa | - | - | - | - |
| 1777969466 | 11.11° C | 75% | 1016.9 hPa | - | - | - | - |
| 1777968565 | 10.56° C | 76% | 1016.9 hPa | - | - | - | - |
| 1777967664 | 10° C | 76% | 1016.9 hPa | - | - | - | - |
| 1777966763 | 10.56° C | 76% | 1016.8 hPa | - | - | - | - |
| 1777965862 | 9.44° C | 77% | 1016.7 hPa | - | - | - | - |
| 1777964962 | 9.44° C | 78% | 1016.8 hPa | - | - | - | - |
| 1777964061 | 9.44° C | 79% | 1016.9 hPa | - | - | - | - |
| 1777963160 | 8.89° C | 79% | 1016.9 hPa | - | - | - | - |
| 1777962259 | 8.89° C | 80% | 1016.9 hPa | - | - | - | - |
| 1777961358 | 8.89° C | 81% | 1016.8 hPa | - | - | - | - |
* Rain since midnight (hover to see other rain measurements)
** Current wind speed in m/s (hover to see current wind gust speed)